sensor_id;sensor_type;location;lat;lon;timestamp;temperature;humidity
51884;DHT22;37915;53.254;6.598;2022-08-03T00:01:49;20.00;99.90
51884;DHT22;37915;53.254;6.598;2022-08-03T00:04:14;20.10;99.90
51884;DHT22;37915;53.254;6.598;2022-08-03T00:06:40;20.10;99.90
51884;DHT22;37915;53.254;6.598;2022-08-03T00:09:06;20.20;99.90
51884;DHT22;37915;53.254;6.598;2022-08-03T00:11:31;20.00;99.90
51884;DHT22;37915;53.254;6.598;2022-08-03T00:13:57;19.90;99.90
51884;DHT22;37915;53.254;6.598;2022-08-03T00:16:22;20.00;99.90
51884;DHT22;37915;53.254;6.598;2022-08-03T00:18:49;20.10;99.90
51884;DHT22;37915;53.254;6.598;2022-08-03T00:21:15;20.10;99.90
51884;DHT22;37915;53.254;6.598;2022-08-03T00:23:41;20.10;99.90
51884;DHT22;37915;53.254;6.598;2022-08-03T00:26:06;19.90;99.90
51884;DHT22;37915;53.254;6.598;2022-08-03T00:28:32;20.40;99.90
51884;DHT22;37915;53.254;6.598;2022-08-03T00:30:58;20.00;99.90
51884;DHT22;37915;53.254;6.598;2022-08-03T00:33:23;20.00;99.90
51884;DHT22;37915;53.254;6.598;2022-08-03T00:35:49;19.90;99.90
51884;DHT22;37915;53.254;6.598;2022-08-03T00:38:15;19.90;99.90
51884;DHT22;37915;53.254;6.598;2022-08-03T00:40:41;19.70;99.90
51884;DHT22;37915;53.254;6.598;2022-08-03T00:43:07;19.80;99.90
51884;DHT22;37915;53.254;6.598;2022-08-03T00:45:34;19.90;99.90
51884;DHT22;37915;53.254;6.598;2022-08-03T00:48:01;19.70;99.90
51884;DHT22;37915;53.254;6.598;2022-08-03T00:50:28;19.70;99.90
51884;DHT22;37915;53.254;6.598;2022-08-03T00:52:55;19.70;99.90
51884;DHT22;37915;53.254;6.598;2022-08-03T00:55:21;19.80;99.90
51884;DHT22;37915;53.254;6.598;2022-08-03T00:57:47;19.70;99.90
51884;DHT22;37915;53.254;6.598;2022-08-03T01:00:13;19.70;99.90
51884;DHT22;37915;53.254;6.598;2022-08-03T01:02:39;19.70;99.90
51884;DHT22;37915;53.254;6.598;2022-08-03T01:05:05;19.70;99.90
51884;DHT22;37915;53.254;6.598;2022-08-03T01:13:03;19.80;99.90
51884;DHT22;37915;53.254;6.598;2022-08-03T01:18:02;19.70;99.90
51884;DHT22;37915;53.254;6.598;2022-08-03T01:20:32;19.70;99.90
51884;DHT22;37915;53.254;6.598;2022-08-03T01:25:27;19.70;99.90
51884;DHT22;37915;53.254;6.598;2022-08-03T01:30:42;19.60;99.90
51884;DHT22;37915;53.254;6.598;2022-08-03T01:33:11;19.50;99.90
51884;DHT22;37915;53.254;6.598;2022-08-03T01:35:58;19.50;99.90
51884;DHT22;37915;53.254;6.598;2022-08-03T01:38:26;19.50;99.90
51884;DHT22;37915;53.254;6.598;2022-08-03T01:40:53;19.60;99.90
51884;DHT22;37915;53.254;6.598;2022-08-03T01:43:20;19.50;99.90
51884;DHT22;37915;53.254;6.598;2022-08-03T01:45:48;19.50;99.90
51884;DHT22;37915;53.254;6.598;2022-08-03T01:48:14;19.60;99.90
51884;DHT22;37915;53.254;6.598;2022-08-03T01:50:41;19.50;99.90
51884;DHT22;37915;53.254;6.598;2022-08-03T01:53:08;19.50;99.90
51884;DHT22;37915;53.254;6.598;2022-08-03T01:55:34;19.50;99.90
51884;DHT22;37915;53.254;6.598;2022-08-03T01:58:01;19.50;99.90
51884;DHT22;37915;53.254;6.598;2022-08-03T02:00:27;19.50;99.90
51884;DHT22;37915;53.254;6.598;2022-08-03T02:02:53;19.40;99.90
51884;DHT22;37915;53.254;6.598;2022-08-03T02:05:19;19.40;99.90
51884;DHT22;37915;53.254;6.598;2022-08-03T02:07:45;19.30;99.90
51884;DHT22;37915;53.254;6.598;2022-08-03T02:10:12;19.30;99.90
51884;DHT22;37915;53.254;6.598;2022-08-03T02:12:38;19.40;99.90
51884;DHT22;37915;53.254;6.598;2022-08-03T02:15:04;19.20;99.90
51884;DHT22;37915;53.254;6.598;2022-08-03T02:17:31;19.30;99.90
51884;DHT22;37915;53.254;6.598;2022-08-03T02:19:57;19.30;99.90
51884;DHT22;37915;53.254;6.598;2022-08-03T02:22:23;19.40;99.90
51884;DHT22;37915;53.254;6.598;2022-08-03T02:24:49;19.50;99.90
51884;DHT22;37915;53.254;6.598;2022-08-03T02:27:17;19.40;99.90
51884;DHT22;37915;53.254;6.598;2022-08-03T02:32:11;19.40;99.90
51884;DHT22;37915;53.254;6.598;2022-08-03T02:34:38;19.30;99.90
51884;DHT22;37915;53.254;6.598;2022-08-03T02:37:04;19.40;99.90
51884;DHT22;37915;53.254;6.598;2022-08-03T02:39:31;19.30;99.90
51884;DHT22;37915;53.254;6.598;2022-08-03T02:41:58;19.30;99.90
51884;DHT22;37915;53.254;6.598;2022-08-03T02:44:28;19.30;99.90
51884;DHT22;37915;53.254;6.598;2022-08-03T02:47:03;19.30;99.90
51884;DHT22;37915;53.254;6.598;2022-08-03T02:49:29;19.20;99.90
51884;DHT22;37915;53.254;6.598;2022-08-03T02:51:56;19.20;99.90
51884;DHT22;37915;53.254;6.598;2022-08-03T02:54:22;19.20;99.90
51884;DHT22;37915;53.254;6.598;2022-08-03T02:56:49;19.20;99.90
51884;DHT22;37915;53.254;6.598;2022-08-03T02:59:16;19.20;99.90
51884;DHT22;37915;53.254;6.598;2022-08-03T03:01:43;19.20;99.90
51884;DHT22;37915;53.254;6.598;2022-08-03T03:04:08;19.10;99.90
51884;DHT22;37915;53.254;6.598;2022-08-03T03:06:35;19.10;99.90
51884;DHT22;37915;53.254;6.598;2022-08-03T03:11:27;19.10;99.90
51884;DHT22;37915;53.254;6.598;2022-08-03T03:13:53;19.00;99.90
51884;DHT22;37915;53.254;6.598;2022-08-03T03:16:20;19.00;99.90
51884;DHT22;37915;53.254;6.598;2022-08-03T03:18:46;18.90;99.90
51884;DHT22;37915;53.254;6.598;2022-08-03T03:21:14;19.10;99.90
51884;DHT22;37915;53.254;6.598;2022-08-03T03:23:40;19.00;99.90
51884;DHT22;37915;53.254;6.598;2022-08-03T03:26:06;19.20;99.90
51884;DHT22;37915;53.254;6.598;2022-08-03T03:28:32;19.00;99.90
51884;DHT22;37915;53.254;6.598;2022-08-03T03:30:58;19.00;99.90
51884;DHT22;37915;53.254;6.598;2022-08-03T03:33:24;18.80;99.90
51884;DHT22;37915;53.254;6.598;2022-08-03T03:35:49;18.90;99.90
51884;DHT22;37915;53.254;6.598;2022-08-03T03:38:16;18.90;99.90
51884;DHT22;37915;53.254;6.598;2022-08-03T03:40:41;18.90;99.90
51884;DHT22;37915;53.254;6.598;2022-08-03T03:43:07;18.50;99.90
51884;DHT22;37915;53.254;6.598;2022-08-03T03:45:34;18.80;99.90
51884;DHT22;37915;53.254;6.598;2022-08-03T03:48:00;18.80;99.90
51884;DHT22;37915;53.254;6.598;2022-08-03T03:50:26;18.80;99.90
51884;DHT22;37915;53.254;6.598;2022-08-03T03:52:52;19.00;99.90
51884;DHT22;37915;53.254;6.598;2022-08-03T03:55:17;19.00;99.90
51884;DHT22;37915;53.254;6.598;2022-08-03T03:57:43;19.00;99.90
51884;DHT22;37915;53.254;6.598;2022-08-03T04:00:09;18.70;99.90
51884;DHT22;37915;53.254;6.598;2022-08-03T04:02:35;18.90;99.90
51884;DHT22;37915;53.254;6.598;2022-08-03T04:05:00;18.70;99.90
51884;DHT22;37915;53.254;6.598;2022-08-03T04:08:00;18.80;99.90
51884;DHT22;37915;53.254;6.598;2022-08-03T04:11:01;18.90;99.90
51884;DHT22;37915;53.254;6.598;2022-08-03T04:13:39;18.90;99.90
51884;DHT22;37915;53.254;6.598;2022-08-03T04:16:08;18.70;99.90
51884;DHT22;37915;53.254;6.598;2022-08-03T04:18:34;18.80;99.90
51884;DHT22;37915;53.254;6.598;2022-08-03T04:21:03;18.80;99.90
51884;DHT22;37915;53.254;6.598;2022-08-03T04:23:30;18.70;99.90
51884;DHT22;37915;53.254;6.598;2022-08-03T04:25:58;18.80;99.90
51884;DHT22;37915;53.254;6.598;2022-08-03T04:28:24;18.80;99.90
51884;DHT22;37915;53.254;6.598;2022-08-03T04:30:50;18.70;99.90
51884;DHT22;37915;53.254;6.598;2022-08-03T04:33:17;18.80;99.90
51884;DHT22;37915;53.254;6.598;2022-08-03T04:35:43;18.70;99.90
51884;DHT22;37915;53.254;6.598;2022-08-03T04:38:11;18.70;99.90
51884;DHT22;37915;53.254;6.598;2022-08-03T04:40:38;18.70;99.90
51884;DHT22;37915;53.254;6.598;2022-08-03T04:43:05;18.60;99.90
51884;DHT22;37915;53.254;6.598;2022-08-03T04:45:32;18.70;99.90
51884;DHT22;37915;53.254;6.598;2022-08-03T04:47:58;18.80;99.90
51884;DHT22;37915;53.254;6.598;2022-08-03T04:50:24;18.70;99.90
51884;DHT22;37915;53.254;6.598;2022-08-03T04:52:49;18.80;99.90
51884;DHT22;37915;53.254;6.598;2022-08-03T04:55:25;18.80;99.90
51884;DHT22;37915;53.254;6.598;2022-08-03T04:57:51;18.80;99.90
51884;DHT22;37915;53.254;6.598;2022-08-03T05:00:16;18.70;99.90
51884;DHT22;37915;53.254;6.598;2022-08-03T05:02:42;18.80;99.90
51884;DHT22;37915;53.254;6.598;2022-08-03T05:05:08;18.80;99.90
51884;DHT22;37915;53.254;6.598;2022-08-03T05:07:34;18.80;99.90
51884;DHT22;37915;53.254;6.598;2022-08-03T05:09:59;18.90;99.90
51884;DHT22;37915;53.254;6.598;2022-08-03T05:14:51;18.90;99.90
51884;DHT22;37915;53.254;6.598;2022-08-03T05:17:16;19.00;99.90
51884;DHT22;37915;53.254;6.598;2022-08-03T05:19:43;18.90;99.90
51884;DHT22;37915;53.254;6.598;2022-08-03T05:24:35;18.90;99.90
51884;DHT22;37915;53.254;6.598;2022-08-03T05:27:00;19.00;99.90
51884;DHT22;37915;53.254;6.598;2022-08-03T05:29:26;19.00;99.90
51884;DHT22;37915;53.254;6.598;2022-08-03T05:31:51;19.20;99.90
51884;DHT22;37915;53.254;6.598;2022-08-03T05:34:17;19.10;99.90
51884;DHT22;37915;53.254;6.598;2022-08-03T05:36:43;19.00;99.90
51884;DHT22;37915;53.254;6.598;2022-08-03T05:39:08;19.10;99.90
51884;DHT22;37915;53.254;6.598;2022-08-03T05:41:34;19.20;99.90
51884;DHT22;37915;53.254;6.598;2022-08-03T05:43:59;19.30;99.90
51884;DHT22;37915;53.254;6.598;2022-08-03T05:46:25;19.30;99.90
51884;DHT22;37915;53.254;6.598;2022-08-03T05:48:51;19.20;99.90
51884;DHT22;37915;53.254;6.598;2022-08-03T05:51:17;19.40;99.90
51884;DHT22;37915;53.254;6.598;2022-08-03T05:53:42;19.40;99.90
51884;DHT22;37915;53.254;6.598;2022-08-03T05:56:08;19.30;99.90
51884;DHT22;37915;53.254;6.598;2022-08-03T05:58:34;19.40;99.90
51884;DHT22;37915;53.254;6.598;2022-08-03T06:00:59;19.40;99.90
51884;DHT22;37915;53.254;6.598;2022-08-03T06:03:25;19.60;99.90
51884;DHT22;37915;53.254;6.598;2022-08-03T06:05:52;19.70;99.90
51884;DHT22;37915;53.254;6.598;2022-08-03T06:08:18;19.90;99.90
51884;DHT22;37915;53.254;6.598;2022-08-03T06:10:44;19.80;99.90
51884;DHT22;37915;53.254;6.598;2022-08-03T06:13:09;19.80;99.90
51884;DHT22;37915;53.254;6.598;2022-08-03T06:15:35;19.90;99.90
51884;DHT22;37915;53.254;6.598;2022-08-03T06:18:01;19.80;99.90
51884;DHT22;37915;53.254;6.598;2022-08-03T06:20:26;20.00;99.90
51884;DHT22;37915;53.254;6.598;2022-08-03T06:22:52;20.10;99.90
51884;DHT22;37915;53.254;6.598;2022-08-03T06:25:18;20.00;99.90
51884;DHT22;37915;53.254;6.598;2022-08-03T06:27:44;20.20;99.90
51884;DHT22;37915;53.254;6.598;2022-08-03T06:30:10;20.20;99.90
51884;DHT22;37915;53.254;6.598;2022-08-03T06:32:36;20.20;99.90
51884;DHT22;37915;53.254;6.598;2022-08-03T06:35:03;20.20;99.90
51884;DHT22;37915;53.254;6.598;2022-08-03T06:37:28;20.20;99.90
51884;DHT22;37915;53.254;6.598;2022-08-03T06:39:54;20.30;99.90
51884;DHT22;37915;53.254;6.598;2022-08-03T06:44:45;20.60;99.90
51884;DHT22;37915;53.254;6.598;2022-08-03T06:47:11;20.60;99.90
51884;DHT22;37915;53.254;6.598;2022-08-03T06:49:36;20.70;99.90
51884;DHT22;37915;53.254;6.598;2022-08-03T06:52:02;20.80;99.90
51884;DHT22;37915;53.254;6.598;2022-08-03T06:54:28;20.70;99.90
51884;DHT22;37915;53.254;6.598;2022-08-03T06:56:54;21.00;99.90
51884;DHT22;37915;53.254;6.598;2022-08-03T06:59:20;21.00;99.90
51884;DHT22;37915;53.254;6.598;2022-08-03T07:01:45;21.10;99.90
51884;DHT22;37915;53.254;6.598;2022-08-03T07:04:11;21.10;99.90
51884;DHT22;37915;53.254;6.598;2022-08-03T07:06:37;21.30;99.90
51884;DHT22;37915;53.254;6.598;2022-08-03T07:09:03;21.40;99.90
51884;DHT22;37915;53.254;6.598;2022-08-03T07:11:29;21.30;99.90
51884;DHT22;37915;53.254;6.598;2022-08-03T07:13:55;21.10;99.90
51884;DHT22;37915;53.254;6.598;2022-08-03T07:16:20;21.50;99.90
51884;DHT22;37915;53.254;6.598;2022-08-03T07:18:46;21.40;99.90
51884;DHT22;37915;53.254;6.598;2022-08-03T07:21:12;21.50;99.90
51884;DHT22;37915;53.254;6.598;2022-08-03T07:26:03;21.60;99.90
51884;DHT22;37915;53.254;6.598;2022-08-03T07:28:29;21.80;99.90
51884;DHT22;37915;53.254;6.598;2022-08-03T07:30:55;21.90;99.90
51884;DHT22;37915;53.254;6.598;2022-08-03T07:33:20;21.90;99.90
51884;DHT22;37915;53.254;6.598;2022-08-03T07:35:46;22.00;99.90
51884;DHT22;37915;53.254;6.598;2022-08-03T07:38:11;22.10;99.90
51884;DHT22;37915;53.254;6.598;2022-08-03T07:40:37;22.30;99.90
51884;DHT22;37915;53.254;6.598;2022-08-03T07:43:03;22.30;99.90
51884;DHT22;37915;53.254;6.598;2022-08-03T07:45:31;22.00;99.90
51884;DHT22;37915;53.254;6.598;2022-08-03T07:47:56;22.60;99.90
51884;DHT22;37915;53.254;6.598;2022-08-03T07:50:22;22.70;99.90
51884;DHT22;37915;53.254;6.598;2022-08-03T07:52:48;22.60;99.90
51884;DHT22;37915;53.254;6.598;2022-08-03T07:55:19;22.80;99.90
51884;DHT22;37915;53.254;6.598;2022-08-03T07:57:44;22.90;99.90
51884;DHT22;37915;53.254;6.598;2022-08-03T08:00:12;23.10;99.90
51884;DHT22;37915;53.254;6.598;2022-08-03T08:02:38;23.10;99.90
51884;DHT22;37915;53.254;6.598;2022-08-03T08:05:04;23.10;99.90
51884;DHT22;37915;53.254;6.598;2022-08-03T08:07:30;23.50;99.90
51884;DHT22;37915;53.254;6.598;2022-08-03T08:09:55;23.40;99.90
51884;DHT22;37915;53.254;6.598;2022-08-03T08:12:21;23.40;99.90
51884;DHT22;37915;53.254;6.598;2022-08-03T08:14:47;23.50;99.90
51884;DHT22;37915;53.254;6.598;2022-08-03T08:17:12;23.50;99.90
51884;DHT22;37915;53.254;6.598;2022-08-03T08:19:38;23.60;99.90
51884;DHT22;37915;53.254;6.598;2022-08-03T08:22:04;23.60;99.90
51884;DHT22;37915;53.254;6.598;2022-08-03T08:24:31;23.70;99.90
51884;DHT22;37915;53.254;6.598;2022-08-03T08:26:58;23.90;99.90
51884;DHT22;37915;53.254;6.598;2022-08-03T08:29:24;23.90;99.90
51884;DHT22;37915;53.254;6.598;2022-08-03T08:31:50;24.00;99.90
51884;DHT22;37915;53.254;6.598;2022-08-03T08:34:15;24.00;99.90
51884;DHT22;37915;53.254;6.598;2022-08-03T08:36:41;24.00;99.90
51884;DHT22;37915;53.254;6.598;2022-08-03T08:39:06;24.00;99.90
51884;DHT22;37915;53.254;6.598;2022-08-03T08:41:32;24.10;99.90
51884;DHT22;37915;53.254;6.598;2022-08-03T08:44:01;24.10;99.90
51884;DHT22;37915;53.254;6.598;2022-08-03T08:46:27;24.20;99.90
51884;DHT22;37915;53.254;6.598;2022-08-03T08:48:56;24.30;99.90
51884;DHT22;37915;53.254;6.598;2022-08-03T08:51:21;24.40;99.90
51884;DHT22;37915;53.254;6.598;2022-08-03T08:53:50;24.50;99.90
51884;DHT22;37915;53.254;6.598;2022-08-03T08:56:16;24.60;99.90
51884;DHT22;37915;53.254;6.598;2022-08-03T08:58:46;24.40;99.90
51884;DHT22;37915;53.254;6.598;2022-08-03T09:01:12;24.70;99.90
51884;DHT22;37915;53.254;6.598;2022-08-03T09:03:38;24.90;99.90
51884;DHT22;37915;53.254;6.598;2022-08-03T09:06:03;25.20;99.90
51884;DHT22;37915;53.254;6.598;2022-08-03T09:08:29;24.90;99.90
51884;DHT22;37915;53.254;6.598;2022-08-03T09:10:55;24.80;99.90
51884;DHT22;37915;53.254;6.598;2022-08-03T09:13:20;24.90;99.90
51884;DHT22;37915;53.254;6.598;2022-08-03T09:15:46;24.50;99.90
51884;DHT22;37915;53.254;6.598;2022-08-03T09:18:12;24.80;99.90
51884;DHT22;37915;53.254;6.598;2022-08-03T09:20:39;24.80;99.90
51884;DHT22;37915;53.254;6.598;2022-08-03T09:23:05;24.80;99.90
51884;DHT22;37915;53.254;6.598;2022-08-03T09:25:39;24.90;99.90
51884;DHT22;37915;53.254;6.598;2022-08-03T10:07:03;26.70;99.90
51884;DHT22;37915;53.254;6.598;2022-08-03T10:09:29;26.50;99.90
51884;DHT22;37915;53.254;6.598;2022-08-03T10:11:55;26.40;99.90
51884;DHT22;37915;53.254;6.598;2022-08-03T10:14:20;26.40;99.90
51884;DHT22;37915;53.254;6.598;2022-08-03T10:16:48;26.40;99.90
51884;DHT22;37915;53.254;6.598;2022-08-03T10:19:14;26.30;99.90
51884;DHT22;37915;53.254;6.598;2022-08-03T10:21:49;26.50;99.90
51884;DHT22;37915;53.254;6.598;2022-08-03T10:24:19;26.50;99.90
